• Join FlightAware (Why Join?)
  • Login
  • US Flag 
07:29AM EST


 

Airport Tracker/Info


-or-


 

Live Flight TrackerFlight Track Log ✈ SKW4664 ✈ 30-Apr-2013 ✈ KMSP - KFSD

Flight Track Log - Related Links

Times and Time Zones

All times are in EDT time to prevent confusion due to time zone crossing. See the SKW4664 flight status page for this flight to view local times or setup timezone preferences in your user account.

Time Position Orientation Groundspeed Altitude Reporting Facility
EDT Latitude Longitude Course Direction KTS MPH feet Rate Location/Type
10:36AM 44.8500 -93.2333 230° Southwest 155 178 1,700  Level Minneapolis TRACON
10:37AM 44.8000 -93.2333 180° South 210 242 3,500 2,040 Climbing Minneapolis TRACON
10:38AM 44.7833 -93.3000 251° West 244 281 5,800 2,160 Climbing Minneapolis TRACON
10:39AM 44.8000 -93.4000 283° West 253 291 7,900 2,340 Climbing Minneapolis TRACON
10:40AM 44.6748 -93.6505 235° Southwest  Level FlightAware Approximate
10:40AM 44.7667 -93.4833 241° Southwest 253 291 10,500  Level Minneapolis TRACON
10:41AM 44.6197 -93.7607 235° Southwest  Level FlightAware Approximate
10:41AM 44.7519 -93.5050 226° Southwest 252 290 11,200  Level Minneapolis Center
10:42AM 44.5589 -93.8630 230° Southwest  Level FlightAware Approximate
10:42AM 44.7139 -93.5892 238° Southwest 256 295 13,700  Level Minneapolis Center
10:43AM 44.6706 -93.6781 236° Southwest 275 316 15,500 1,740 Climbing Minneapolis Center
10:44AM 44.6231 -93.7703 234° Southwest 290 334 17,300 1,920 Climbing Minneapolis Center
10:45AM 44.5906 -93.8728 246° West 289 333 19,500 1,800 Climbing Minneapolis Center
10:46AM 44.5544 -93.9783 244° Southwest 297 342 21,100 1,200 Climbing Minneapolis Center
10:47AM 44.5197 -94.0856 246° West 301 346 22,000 420 Climbing Minneapolis Center
10:48AM 44.4742 -94.2192 244° Southwest 313 360 22,000  Level Minneapolis Center
10:49AM 44.4375 -94.3286 245° Southwest 314 361 22,000  Level Minneapolis Center
10:50AM 44.4019 -94.4342 245° Southwest 307 353 22,000  Level Minneapolis Center
10:51AM 44.3672 -94.5361 245° Southwest 295 339 22,000  Level Minneapolis Center
10:52AM 44.3406 -94.6189 246° West 294 338 22,000  Level Minneapolis Center
10:53AM 44.2972 -94.7414 244° Southwest 290 334 22,000  Level Minneapolis Center
10:54AM 44.2625 -94.8419 244° Southwest 289 333 22,000  Level Minneapolis Center
10:55AM 44.2286 -94.9422 245° Southwest 288 331 22,000  Level Minneapolis Center
10:56AM 44.1867 -95.0628 244° Southwest 288 331 22,000  Level Minneapolis Center
10:57AM 44.1506 -95.1639 244° Southwest 290 334 22,000  Level Minneapolis Center
10:58AM 44.1161 -95.2644 245° Southwest 290 334 22,000  Level Minneapolis Center
10:59AM 44.0806 -95.3644 244° Southwest 289 333 22,000  Level Minneapolis Center
11:00AM 44.0447 -95.4642 243° Southwest 288 331 22,000  Level Minneapolis Center
11:02AM 44.0089 -95.5667 244° Southwest 293 337 22,000  Level Minneapolis Center
11:03AM 43.9639 -95.6906 243° Southwest 299 344 22,000  Level Minneapolis Center
11:04AM 43.9283 -95.7925 244° Southwest 294 338 22,000 -840 Level Minneapolis Center
11:05AM 43.8953 -95.8836 243° Southwest 270 311 20,300 -2,220 Descending Minneapolis Center
11:06AM 43.8578 -95.9881 244° Southwest 252 290 17,500 -2,520 Descending Minneapolis Center
11:07AM 43.8317 -96.0628 244° Southwest 221 254 15,200 -2,100 Descending Minneapolis Center
11:08AM 43.8042 -96.1367 243° Southwest 216 249 13,300 -1,800 Descending Minneapolis Center
11:09AM 43.7792 -96.2050 243° Southwest 204 235 11,600 -1,560 Descending Minneapolis Center
11:10AM 43.7525 -96.2731 242° Southwest 201 231 10,200 -1,320 Descending Minneapolis Center
11:11AM 43.7203 -96.3333 234° Southwest 199 229 9,000 -1,140 Descending Minneapolis Center
11:12AM 43.6861 -96.3942 232° Southwest 198 228 7,700 -1,200 Descending Minneapolis Center
11:13AM 43.6458 -96.4683 233° Southwest 201 231 6,300 -840 Descending Minneapolis Center
11:14AM 43.6092 -96.5175 224° Southwest 194 223 6,100 -240 Descending Minneapolis Center
11:15AM 43.5500 -96.5533 204° Southwest 192 221 5,900 -720 Descending Minneapolis Center
11:16AM 43.5075 -96.5919 213° Southwest 190 219 4,700 -1,200 Descending Minneapolis Center